Time;durP1;ratioP1;P1;durP2;ratioP2;P2;SDS_P1;SDS_P2;PMS_P1;PMS_P2;Temp;Humidity;BMP_temperature;BMP_pressure;BME280_temperature;BME280_humidity;BME280_pressure;Samples;Min_cycle;Max_cycle;Signal;HPM_P1;HPM_P2
2022/03/19 00:01:49;;;;;;;;;;;;;;;27.20;59.40;99156.47;617122;230;64920;-64
2022/03/19 00:04:17;;;;;;;;;;;;;;;27.20;59.08;99150.23;617112;230;64605;-64
2022/03/19 00:06:46;;;;;;;;;;;;;;;27.20;59.45;99150.23;617103;230;65062;-64
2022/03/19 00:09:14;;;;;;;;;;;;;;;27.19;59.84;99156.72;617122;230;67012;-64
2022/03/19 00:11:41;;;;;;;;;;;;;;;27.16;58.93;99147.25;617195;230;66804;-64
2022/03/19 00:14:14;;;;;;;;;;;;;;;27.16;59.21;99141.85;617109;230;65330;-64
2022/03/19 00:16:39;;;;;;;;;;;;;;;27.16;58.70;99141.02;617736;229;67040;-64
2022/03/19 00:19:08;;;;;;;;;;;;;;;27.16;59.12;99141.85;619235;229;66749;-64
2022/03/19 00:21:36;;;;;;;;;;;;;;;27.14;58.49;99132.36;619198;229;65199;-64
2022/03/19 00:24:04;;;;;;;;;;;;;;;27.14;59.16;99135.86;619263;229;64544;-64
2022/03/19 00:26:33;;;;;;;;;;;;;;;27.13;59.07;99136.14;619170;229;67257;-64
2022/03/19 00:29:01;;;;;;;;;;;;;;;27.12;58.58;99134.50;619207;229;65448;-64
2022/03/19 00:31:28;;;;;;;;;;;;;;;27.12;59.04;99135.33;619216;229;64849;-64
2022/03/19 00:33:56;;;;;;;;;;;;;;;27.10;58.97;99137.47;619225;229;64928;-64
2022/03/19 00:36:24;;;;;;;;;;;;;;;27.09;58.69;99125.06;619255;229;65564;-64
2022/03/19 00:38:51;;;;;;;;;;;;;;;27.08;59.12;99128.81;619215;229;67231;-64
2022/03/19 00:41:19;;;;;;;;;;;;;;;27.08;58.37;99128.81;619206;229;67077;-64
2022/03/19 00:43:46;;;;;;;;;;;;;;;27.07;58.29;99131.79;619223;229;65472;-62
2022/03/19 00:46:15;;;;;;;;;;;;;;;27.06;59.10;99130.95;619200;229;66923;-62
2022/03/19 00:48:43;;;;;;;;;;;;;;;27.05;59.39;99123.94;619189;229;67108;-62
2022/03/19 00:51:10;;;;;;;;;;;;;;;27.04;59.26;99134.98;619230;229;65350;-62
2022/03/19 00:53:38;;;;;;;;;;;;;;;27.04;59.01;99130.42;619223;229;67347;-62
2022/03/19 00:56:05;;;;;;;;;;;;;;;27.04;59.32;99132.28;619214;229;66679;-62
2022/03/19 00:58:33;;;;;;;;;;;;;;;27.01;59.07;99123.66;619178;229;65340;-62
2022/03/19 01:01:01;;;;;;;;;;;;;;;27.01;59.66;99114.75;619231;229;64693;-65
2022/03/19 01:03:29;;;;;;;;;;;;;;;27.00;59.47;99121.20;619266;229;67057;-65
2022/03/19 01:05:56;;;;;;;;;;;;;;;26.99;59.73;99125.80;619212;229;65257;-65
2022/03/19 01:08:24;;;;;;;;;;;;;;;26.98;60.01;99123.34;619229;229;65039;-65
2022/03/19 01:10:52;;;;;;;;;;;;;;;26.97;59.69;99117.14;619231;229;66775;-62
2022/03/19 01:13:20;;;;;;;;;;;;;;;26.97;59.33;99122.53;619232;229;63099;-62
2022/03/19 01:15:47;;;;;;;;;;;;;;;26.97;59.37;99121.73;619218;229;64732;-62
2022/03/19 01:18:14;;;;;;;;;;;;;;;26.95;60.01;99115.77;619247;229;65576;-62
2022/03/19 01:20:42;;;;;;;;;;;;;;;26.94;59.16;99111.45;619252;229;64080;-65
2022/03/19 01:23:09;;;;;;;;;;;;;;;26.93;59.27;99107.95;619255;229;64596;-65
2022/03/19 01:25:38;;;;;;;;;;;;;;;26.93;60.02;99104.45;619174;229;64703;-65
2022/03/19 01:28:06;;;;;;;;;;;;;;;26.92;59.22;99100.11;619290;229;62826;-65
2022/03/19 01:30:34;;;;;;;;;;;;;;;26.92;59.65;99097.41;619234;229;64713;-66
2022/03/19 01:33:01;;;;;;;;;;;;;;;26.91;59.39;99103.89;619274;228;64387;-64
2022/03/19 01:35:29;;;;;;;;;;;;;;;26.89;59.45;99100.63;619265;229;65166;-65
2022/03/19 01:37:58;;;;;;;;;;;;;;;26.90;59.82;99105.78;619254;229;66858;-64
2022/03/19 01:40:26;;;;;;;;;;;;;;;26.88;59.52;99096.31;619234;229;64712;-64
2022/03/19 01:42:53;;;;;;;;;;;;;;;26.87;58.95;99108.16;619311;229;63235;-64
2022/03/19 01:45:22;;;;;;;;;;;;;;;26.87;60.63;99108.16;619274;229;67381;-65
2022/03/19 01:47:50;;;;;;;;;;;;;;;26.87;59.48;99102.77;619172;229;66870;-65
2022/03/19 01:50:18;;;;;;;;;;;;;;;26.86;59.35;99099.26;619256;229;65493;-65
2022/03/19 01:52:46;;;;;;;;;;;;;;;26.85;59.25;99105.73;619290;229;64701;-65
2022/03/19 01:55:14;;;;;;;;;;;;;;;26.82;59.19;99095.47;619255;229;64877;-65
2022/03/19 01:57:43;;;;;;;;;;;;;;;26.82;59.97;99100.86;619287;229;63280;-64
2022/03/19 02:00:12;;;;;;;;;;;;;;;26.82;59.66;99100.86;619251;229;64150;-65
2022/03/19 02:02:39;;;;;;;;;;;;;;;26.80;59.72;99100.30;619262;229;67399;-63
2022/03/19 02:05:08;;;;;;;;;;;;;;;26.80;59.47;99097.61;619268;229;65433;-63
2022/03/19 02:07:36;;;;;;;;;;;;;;;26.78;59.42;99103.25;619198;229;64859;-63
2022/03/19 02:10:04;;;;;;;;;;;;;;;26.78;60.55;99103.25;619267;229;66865;-64
2022/03/19 02:12:31;;;;;;;;;;;;;;;26.77;59.24;99101.63;619256;229;65462;-64
2022/03/19 02:14:59;;;;;;;;;;;;;;;26.76;60.08;99093.78;619247;229;66915;-63
2022/03/19 02:17:27;;;;;;;;;;;;;;;26.75;59.53;99095.67;617735;229;66782;-63
2022/03/19 02:19:55;;;;;;;;;;;;;;;26.75;60.10;99103.77;617119;230;63372;-64
2022/03/19 02:22:25;;;;;;;;;;;;;;;26.73;58.98;99089.72;617132;230;65389;-63
2022/03/19 02:27:39;;;;;;;;;;;;;;;26.73;59.75;99097.00;617158;230;63284;-64
2022/03/19 02:30:08;;;;;;;;;;;;;;;26.71;59.88;99097.28;617082;230;64673;-64
2022/03/19 02:32:36;;;;;;;;;;;;;;;26.70;59.88;99103.73;617176;230;66815;-64
2022/03/19 02:35:05;;;;;;;;;;;;;;;26.69;59.80;99099.41;617114;230;65412;-64
2022/03/19 02:37:39;;;;;;;;;;;;;;;26.68;59.52;99108.59;617152;230;65552;-64
2022/03/19 02:40:09;;;;;;;;;;;;;;;26.69;59.67;99106.70;617132;230;67579;-62
2022/03/19 02:42:36;;;;;;;;;;;;;;;26.67;60.01;99101.55;617101;230;65666;-62
2022/03/19 02:45:06;;;;;;;;;;;;;;;26.66;60.37;99102.63;617132;230;66734;-62
2022/03/19 02:47:34;;;;;;;;;;;;;;;26.67;60.25;99103.44;617184;230;64515;-62
2022/03/19 02:50:01;;;;;;;;;;;;;;;26.65;59.53;99098.28;617121;230;63284;-62
2022/03/19 02:52:30;;;;;;;;;;;;;;;26.65;59.61;99098.28;617131;230;66938;-62
2022/03/19 02:54:57;;;;;;;;;;;;;;;26.62;60.01;99096.11;617120;230;66967;-62
2022/03/19 02:57:25;;;;;;;;;;;;;;;26.63;60.15;99099.61;617088;230;65366;-62
2022/03/19 02:59:52;;;;;;;;;;;;;;;26.61;60.37;99105.28;617199;230;66936;-62
2022/03/19 03:02:20;;;;;;;;;;;;;;;26.61;61.31;99110.67;617140;230;66775;-62
2022/03/19 03:04:48;;;;;;;;;;;;;;;26.60;59.30;99100.97;617128;230;65497;-62
2022/03/19 03:07:15;;;;;;;;;;;;;;;26.61;60.41;99099.08;617133;230;67019;-62
2022/03/19 03:09:44;;;;;;;;;;;;;;;26.59;60.28;99093.94;617094;230;66423;-62
2022/03/19 03:12:12;;;;;;;;;;;;;;;26.56;59.42;99097.95;617219;230;63008;-62
2022/03/19 03:14:39;;;;;;;;;;;;;;;26.58;60.15;99091.51;617144;230;64630;-62
2022/03/19 03:17:07;;;;;;;;;;;;;;;26.58;60.39;99091.51;618331;229;66814;-64
2022/03/19 03:19:35;;;;;;;;;;;;;;;26.56;60.45;99083.66;619244;229;63230;-62
2022/03/19 03:22:03;;;;;;;;;;;;;;;26.56;60.88;99094.45;619223;229;67268;-62
2022/03/19 03:24:31;;;;;;;;;;;;;;;26.53;60.84;99094.97;619271;229;66892;-62
2022/03/19 03:26:58;;;;;;;;;;;;;;;26.51;60.38;99094.41;619286;229;65280;-62
2022/03/19 03:29:26;;;;;;;;;;;;;;;26.51;61.36;99094.41;619261;229;66885;-62
2022/03/19 03:31:55;;;;;;;;;;;;;;;26.51;60.76;99089.02;619250;229;64319;-61
2022/03/19 03:34:23;;;;;;;;;;;;;;;26.50;60.26;99088.17;619253;229;63348;-61
2022/03/19 03:36:50;;;;;;;;;;;;;;;26.49;60.62;99085.72;619246;229;66746;-62
2022/03/19 03:39:17;;;;;;;;;;;;;;;26.48;61.30;99081.41;619310;229;66842;-62
2022/03/19 03:41:45;;;;;;;;;;;;;;;26.47;60.32;99087.89;619247;229;65448;-62
2022/03/19 03:44:12;;;;;;;;;;;;;;;26.48;61.31;99093.00;619244;229;66871;-61
2022/03/19 03:46:40;;;;;;;;;;;;;;;26.46;61.04;99086.24;619241;229;65411;-61
2022/03/19 03:49:08;;;;;;;;;;;;;;;26.45;60.38;99079.23;619239;229;65196;-61
2022/03/19 03:51:35;;;;;;;;;;;;;;;26.44;61.35;99083.02;619267;229;68253;-61
2022/03/19 03:54:04;;;;;;;;;;;;;;;26.43;60.61;99084.06;619251;229;64542;-62
2022/03/19 03:56:32;;;;;;;;;;;;;;;26.41;61.71;99086.19;619256;229;64044;-62
2022/03/19 03:59:00;;;;;;;;;;;;;;;26.41;60.66;99092.42;619242;229;66741;-62
2022/03/19 04:01:27;;;;;;;;;;;;;;;26.41;61.25;99097.81;619308;229;66325;-62
2022/03/19 04:03:55;;;;;;;;;;;;;;;26.38;60.95;99095.61;619267;229;65277;-62
2022/03/19 04:06:22;;;;;;;;;;;;;;;26.38;61.96;99092.91;619291;229;64386;-62
2022/03/19 04:08:50;;;;;;;;;;;;;;;26.37;60.86;99095.88;619229;229;64804;-62
2022/03/19 04:11:17;;;;;;;;;;;;;;;26.37;61.15;99093.98;619270;229;63017;-62
2022/03/19 04:13:45;;;;;;;;;;;;;;;26.37;61.31;99093.19;619272;229;64313;-62
2022/03/19 04:16:12;;;;;;;;;;;;;;;26.37;59.93;99104.77;619288;229;64338;-62
2022/03/19 04:18:41;;;;;;;;;;;;;;;26.36;61.44;99105.86;619288;229;63106;-62
2022/03/19 04:21:09;;;;;;;;;;;;;;;26.32;61.55;99092.05;619271;229;66638;-64
2022/03/19 04:23:37;;;;;;;;;;;;;;;26.33;60.95;99100.98;619242;229;64361;-64
2022/03/19 04:26:04;;;;;;;;;;;;;;;26.33;61.38;99100.98;619258;229;63306;-64
2022/03/19 04:28:32;;;;;;;;;;;;;;;26.31;62.52;99112.00;619222;229;64497;-62
2022/03/19 04:30:59;;;;;;;;;;;;;;;26.28;62.42;99107.13;619268;229;64707;-64
2022/03/19 04:33:26;;;;;;;;;;;;;;;26.27;61.53;99118.98;619205;229;63152;-64
2022/03/19 04:38:40;;;;;;;;;;;;;;;26.26;61.99;99106.56;619242;229;66911;-65
2022/03/19 04:41:08;;;;;;;;;;;;;;;26.25;62.06;99112.22;619235;229;65109;-63
2022/03/19 04:43:36;;;;;;;;;;;;;;;26.24;61.64;99114.08;618779;228;67322;-63
2022/03/19 04:46:03;;;;;;;;;;;;;;;26.24;62.27;99119.47;619310;229;64448;-63
2022/03/19 04:48:31;;;;;;;;;;;;;;;26.22;63.28;99110.84;619231;229;63150;-60
2022/03/19 04:50:59;;;;;;;;;;;;;;;26.20;62.76;99118.36;619242;229;64688;-60
2022/03/19 04:53:26;;;;;;;;;;;;;;;26.21;62.36;99124.56;619239;229;66902;-60
2022/03/19 04:55:54;;;;;;;;;;;;;;;26.19;62.00;99111.36;619238;229;65313;-60
2022/03/19 04:58:21;;;;;;;;;;;;;;;26.17;61.87;99112.68;619246;229;66956;-60
2022/03/19 05:00:49;;;;;;;;;;;;;;;26.16;62.50;99111.03;619268;229;66835;-60
2022/03/19 05:03:17;;;;;;;;;;;;;;;26.15;63.07;99110.23;619238;229;65359;-60
2022/03/19 05:05:44;;;;;;;;;;;;;;;26.15;63.28;99112.11;619269;229;66954;-60
2022/03/19 05:08:12;;;;;;;;;;;;;;;26.13;63.02;99112.35;619264;229;66653;-61
2022/03/19 05:13:25;;;;;;;;;;;;;;;26.12;62.35;99116.13;619305;229;67002;-60
2022/03/19 05:15:53;;;;;;;;;;;;;;;26.12;63.57;99124.21;619064;229;64433;-60
2022/03/19 05:18:21;;;;;;;;;;;;;;;26.12;63.06;99121.52;617141;230;64062;-60
2022/03/19 05:20:48;;;;;;;;;;;;;;;26.10;63.08;99115.56;617123;230;64852;-60
2022/03/19 05:23:16;;;;;;;;;;;;;;;26.10;63.03;99115.56;617076;230;67369;-60
2022/03/19 05:25:43;;;;;;;;;;;;;;;26.08;62.95;99121.22;617177;230;65317;-60
2022/03/19 05:28:11;;;;;;;;;;;;;;;26.06;61.88;99117.95;617133;230;67220;-60
2022/03/19 05:30:40;;;;;;;;;;;;;;;26.05;62.77;99110.12;617155;230;47580;-61
2022/03/19 05:33:08;;;;;;;;;;;;;;;26.05;63.23;99110.92;617131;230;65303;-61
2022/03/19 05:35:37;;;;;;;;;;;;;;;26.04;62.26;99113.89;617055;230;67159;-61
2022/03/19 05:38:05;;;;;;;;;;;;;;;26.04;62.21;99111.19;617150;230;67660;-61
2022/03/19 05:40:33;;;;;;;;;;;;;;;26.01;62.95;99120.59;617167;230;65278;-62
2022/03/19 05:43:00;;;;;;;;;;;;;;;26.01;63.33;99111.70;617148;230;66914;-63
2022/03/19 05:45:28;;;;;;;;;;;;;;;26.01;64.29;99109.02;617123;230;64661;-61
2022/03/19 05:47:55;;;;;;;;;;;;;;;26.00;63.87;99115.45;617084;230;62988;-61
2022/03/19 05:50:22;;;;;;;;;;;;;;;25.99;64.24;99116.52;617161;230;65196;-63
2022/03/19 05:52:50;;;;;;;;;;;;;;;25.96;62.94;99108.95;617112;230;64466;-62
2022/03/19 05:55:18;;;;;;;;;;;;;;;25.97;63.63;99127.54;617132;230;65320;-62
2022/03/19 05:57:45;;;;;;;;;;;;;;;25.95;62.78;99112.72;617106;230;67210;-63
2022/03/19 06:00:12;;;;;;;;;;;;;;;25.96;64.20;99119.73;617136;230;66978;-62
2022/03/19 06:02:42;;;;;;;;;;;;;;;25.95;63.59;99118.92;617087;230;65783;-62
2022/03/19 06:05:10;;;;;;;;;;;;;;;25.93;63.17;99112.16;617184;230;64956;-62
2022/03/19 06:07:38;;;;;;;;;;;;;;;25.92;62.94;99119.43;617128;230;67111;-62
2022/03/19 06:10:06;;;;;;;;;;;;;;;25.90;62.36;99111.59;617102;230;65308;-62
2022/03/19 06:12:34;;;;;;;;;;;;;;;25.88;61.65;99121.79;617088;230;67231;-62
2022/03/19 06:15:01;;;;;;;;;;;;;;;25.88;63.75;99116.41;617056;230;65849;-62
2022/03/19 06:17:29;;;;;;;;;;;;;;;25.89;64.14;99117.21;618678;229;63150;-62
2022/03/19 06:19:59;;;;;;;;;;;;;;;25.88;63.60;99115.59;619232;229;66056;-62
2022/03/19 06:22:27;;;;;;;;;;;;;;;25.85;64.23;99116.91;619219;229;66910;-62
2022/03/19 06:24:55;;;;;;;;;;;;;;;25.84;63.20;99117.19;619164;229;65312;-62
2022/03/19 06:27:22;;;;;;;;;;;;;;;25.86;64.33;99113.17;619248;229;67189;-62
2022/03/19 06:29:50;;;;;;;;;;;;;;;25.85;63.91;99113.41;619256;229;65423;-62
2022/03/19 06:32:20;;;;;;;;;;;;;;;25.82;64.20;99120.08;619239;229;65208;-62
2022/03/19 06:34:48;;;;;;;;;;;;;;;25.83;63.88;99123.59;619158;229;67066;-62
2022/03/19 06:37:20;;;;;;;;;;;;;;;25.82;64.73;99122.77;619221;229;67646;-62
2022/03/19 06:39:48;;;;;;;;;;;;;;;25.81;64.83;99129.24;619235;229;63160;-62
2022/03/19 06:42:16;;;;;;;;;;;;;;;25.80;64.44;99132.98;619139;229;67175;-63
2022/03/19 06:44:44;;;;;;;;;;;;;;;25.80;63.50;99132.17;619292;229;66856;-62
2022/03/19 06:47:11;;;;;;;;;;;;;;;25.81;64.15;99133.79;619238;229;62976;-62
2022/03/19 06:49:41;;;;;;;;;;;;;;;25.81;65.12;99126.55;619202;229;67676;-62
2022/03/19 06:52:10;;;;;;;;;;;;;;;25.79;63.83;99125.98;619245;229;66961;-62
2022/03/19 06:54:37;;;;;;;;;;;;;;;25.79;64.33;99127.86;619239;229;65312;-62
2022/03/19 06:57:05;;;;;;;;;;;;;;;25.80;63.53;99130.28;619112;228;66897;-62
2022/03/19 06:59:32;;;;;;;;;;;;;;;25.81;63.84;99131.94;619246;229;67071;-62
2022/03/19 07:02:00;;;;;;;;;;;;;;;25.80;63.09;99129.48;619201;229;63143;-67
2022/03/19 07:04:29;;;;;;;;;;;;;;;25.81;63.24;99123.02;618474;229;67268;-63
2022/03/19 07:06:56;;;;;;;;;;;;;;;25.83;63.67;99132.50;621890;226;67086;-62
2022/03/19 07:09:25;;;;;;;;;;;;;;;25.83;63.77;99131.66;621657;227;65324;-62
2022/03/19 07:11:53;;;;;;;;;;;;;;;25.85;62.75;99135.77;620262;227;64721;-62
2022/03/19 07:14:22;;;;;;;;;;;;;;;25.83;58.89;99135.20;618856;229;67392;-61
2022/03/19 07:16:51;;;;;;;;;;;;;;;25.88;61.69;99132.56;618103;229;65933;-60
2022/03/19 07:19:18;;;;;;;;;;;;;;;25.85;63.86;99133.08;617019;230;67169;-61
2022/03/19 07:21:46;;;;;;;;;;;;;;;25.85;64.20;99140.34;617095;230;66996;-66
2022/03/19 07:24:14;;;;;;;;;;;;;;;25.84;64.32;99144.92;616964;230;65377;-62
2022/03/19 07:26:41;;;;;;;;;;;;;;;25.85;63.62;99140.34;616967;230;67267;-62
2022/03/19 07:29:08;;;;;;;;;;;;;;;25.84;63.56;99142.23;617007;230;67010;-62
2022/03/19 07:31:36;;;;;;;;;;;;;;;25.86;63.26;99140.11;616966;230;65274;-62
2022/03/19 07:34:03;;;;;;;;;;;;;;;25.87;63.74;99141.72;616998;230;67102;-63
2022/03/19 07:36:32;;;;;;;;;;;;;;;25.89;62.53;99144.15;616923;230;65607;-62
2022/03/19 07:39:00;;;;;;;;;;;;;;;25.90;62.79;99141.22;616972;230;65320;-62
2022/03/19 07:41:46;;;;;;;;;;;;;;;25.90;63.76;99143.10;616970;230;67345;-65
2022/03/19 07:44:13;;;;;;;;;;;;;;;25.91;62.49;99150.91;617067;230;66874;-65
2022/03/19 07:46:42;;;;;;;;;;;;;;;25.87;60.37;99141.72;616913;230;65283;-66
2022/03/19 07:49:11;;;;;;;;;;;;;;;25.89;62.46;99139.60;617009;230;67110;-64
2022/03/19 07:51:41;;;;;;;;;;;;;;;25.90;61.16;99141.22;617040;230;67453;-64
2022/03/19 07:54:08;;;;;;;;;;;;;;;25.93;62.77;99153.38;616913;230;63369;-63
2022/03/19 07:56:37;;;;;;;;;;;;;;;25.93;61.65;99137.20;616979;230;64718;-62
2022/03/19 07:59:05;;;;;;;;;;;;;;;25.93;62.19;99139.91;617107;230;64821;-62
2022/03/19 08:01:32;;;;;;;;;;;;;;;25.94;61.52;99143.41;616956;230;63005;-62
2022/03/19 08:04:01;;;;;;;;;;;;;;;25.96;61.72;99149.36;616999;230;67200;-62
2022/03/19 08:06:29;;;;;;;;;;;;;;;25.95;62.14;99135.08;617085;230;66702;-62
2022/03/19 08:08:56;;;;;;;;;;;;;;;25.97;61.03;99145.59;616974;230;66172;-62
2022/03/19 08:11:24;;;;;;;;;;;;;;;25.98;62.14;99141.84;617108;230;66580;-62
2022/03/19 08:13:51;;;;;;;;;;;;;;;25.98;61.43;99145.35;616960;230;64421;-62
2022/03/19 08:16:19;;;;;;;;;;;;;;;26.00;60.70;99137.84;616918;229;62987;-62
2022/03/19 08:18:47;;;;;;;;;;;;;;;26.01;60.48;99144.03;617032;230;67026;-62
2022/03/19 08:21:15;;;;;;;;;;;;;;;26.02;59.57;99137.56;617002;230;64535;-62
2022/03/19 08:23:42;;;;;;;;;;;;;;;26.05;60.16;99142.45;617047;230;62971;-63
2022/03/19 08:26:10;;;;;;;;;;;;;;;26.05;58.98;99132.48;617068;230;66904;-62
2022/03/19 08:28:39;;;;;;;;;;;;;;;26.07;59.39;99134.94;616974;230;66768;-65
2022/03/19 08:31:07;;;;;;;;;;;;;;;26.08;53.80;99133.85;617038;230;65046;-63
2022/03/19 08:33:34;;;;;;;;;;;;;;;26.33;52.20;99138.72;617079;230;67264;-63
2022/03/19 08:36:02;;;;;;;;;;;;;;;26.29;58.64;99138.39;616985;230;67825;-64
2022/03/19 08:41:14;;;;;;;;;;;;;;;26.23;59.10;99134.02;617004;230;67287;-62
2022/03/19 08:43:44;;;;;;;;;;;;;;;26.24;59.46;99134.83;616998;230;66987;-62
2022/03/19 08:46:12;;;;;;;;;;;;;;;26.26;57.98;99135.40;617006;230;62893;-63
2022/03/19 08:48:42;;;;;;;;;;;;;;;26.31;57.54;99135.45;617029;230;65187;-62
2022/03/19 08:53:56;;;;;;;;;;;;;;;26.33;58.07;99136.83;617109;230;65465;-62
2022/03/19 08:56:23;;;;;;;;;;;;;;;26.37;58.33;99133.62;617022;230;67056;-62
2022/03/19 08:58:51;;;;;;;;;;;;;;;26.38;57.47;99135.23;617344;226;67563;-63
2022/03/19 09:01:19;;;;;;;;;;;;;;;26.41;57.17;99140.11;618597;229;65390;-63
2022/03/19 09:03:46;;;;;;;;;;;;;;;26.40;56.10;99147.39;618520;229;67355;-63
2022/03/19 09:06:17;;;;;;;;;;;;;;;26.42;56.27;99141.75;618549;229;48419;-63
2022/03/19 09:08:44;;;;;;;;;;;;;;;26.44;56.74;99145.02;618321;229;62999;-62
2022/03/19 09:11:12;;;;;;;;;;;;;;;26.45;56.61;99138.55;618327;229;67208;-62
2022/03/19 09:13:42;;;;;;;;;;;;;;;26.46;57.07;99143.67;618580;229;67061;-58
2022/03/19 09:16:09;;;;;;;;;;;;;;;26.37;55.62;99145.20;618083;229;63198;-58
2022/03/19 09:18:37;;;;;;;;;;;;;;;26.41;55.97;99146.34;616534;230;64953;-63
2022/03/19 09:21:06;;;;;;;;;;;;;;;26.46;56.33;99145.55;616637;230;64881;-64
2022/03/19 09:23:37;;;;;;;;;;;;;;;26.46;57.42;99149.05;616424;230;44688;-59
2022/03/19 09:26:05;;;;;;;;;;;;;;;26.47;54.24;99156.09;616536;230;66938;-63
2022/03/19 09:28:32;;;;;;;;;;;;;;;26.50;55.00;99135.91;616593;228;66697;-64
2022/03/19 09:31:00;;;;;;;;;;;;;;;26.49;56.77;99140.48;618771;228;65352;-63
2022/03/19 09:33:28;;;;;;;;;;;;;;;26.48;56.30;99141.53;618611;228;67330;-62
2022/03/19 09:35:58;;;;;;;;;;;;;;;26.50;56.45;99143.98;618617;228;65486;-63
2022/03/19 09:38:25;;;;;;;;;;;;;;;26.48;55.99;99140.73;616985;230;63133;-64
2022/03/19 09:40:52;;;;;;;;;;;;;;;26.49;56.30;99145.03;616961;230;64908;-63
2022/03/19 09:43:23;;;;;;;;;;;;;;;26.49;57.20;99142.34;617010;230;67763;-63
2022/03/19 09:45:51;;;;;;;;;;;;;;;26.50;56.41;99135.91;616918;230;65317;-64
2022/03/19 09:48:19;;;;;;;;;;;;;;;26.50;55.83;99141.30;616985;230;67066;-65
2022/03/19 09:50:48;;;;;;;;;;;;;;;26.50;56.38;99138.59;616989;230;67036;-64
2022/03/19 09:53:17;;;;;;;;;;;;;;;26.51;56.49;99143.75;616999;230;68935;-61
2022/03/19 09:55:45;;;;;;;;;;;;;;;26.51;55.95;99142.94;616941;230;67312;-67
2022/03/19 09:58:15;;;;;;;;;;;;;;;26.52;56.98;99147.28;617009;230;67059;-64
2022/03/19 10:00:43;;;;;;;;;;;;;;;26.51;58.04;99145.63;617091;230;65671;-65
2022/03/19 10:03:13;;;;;;;;;;;;;;;26.51;57.20;99140.24;616962;230;67187;-67
2022/03/19 10:08:36;;;;;;;;;;;;;;;26.53;55.15;99132.72;616934;230;65450;-63
2022/03/19 10:11:04;;;;;;;;;;;;;;;26.54;55.67;99134.33;617061;230;67051;-64
2022/03/19 10:13:31;;;;;;;;;;;;;;;26.54;55.85;99137.84;617065;230;66733;-61
2022/03/19 10:15:59;;;;;;;;;;;;;;;26.55;55.27;99131.39;616975;229;65366;-67
2022/03/19 10:18:30;;;;;;;;;;;;;;;26.57;55.56;99139.21;616986;230;64910;-64
2022/03/19 10:21:02;;;;;;;;;;;;;;;26.58;54.95;99135.46;617041;230;65466;-66
2022/03/19 10:23:39;;;;;;;;;;;;;;;26.56;55.50;99134.90;617105;230;63442;-65
2022/03/19 10:26:07;;;;;;;;;;;;;;;26.54;56.18;99134.33;616705;230;64879;-64
2022/03/19 10:28:35;;;;;;;;;;;;;;;26.54;56.42;99135.14;617121;230;64824;-65
2022/03/19 10:31:03;;;;;;;;;;;;;;;26.55;55.38;99122.50;617162;230;65411;-64
2022/03/19 10:33:31;;;;;;;;;;;;;;;26.55;56.53;99131.39;617090;230;67324;-65
2022/03/19 10:36:06;;;;;;;;;;;;;;;26.56;56.24;99132.20;617141;230;65014;-65
2022/03/19 10:38:42;;;;;;;;;;;;;;;26.56;55.94;99130.31;616864;230;65285;-65
2022/03/19 10:41:09;;;;;;;;;;;;;;;26.57;55.50;99123.03;616828;230;66580;-64
2022/03/19 10:43:37;;;;;;;;;;;;;;;26.58;55.19;99134.66;617132;230;64818;-64
2022/03/19 10:46:05;;;;;;;;;;;;;;;26.58;55.72;99123.87;617112;229;65537;-64
2022/03/19 10:48:32;;;;;;;;;;;;;;;26.59;55.92;99126.29;617117;230;65179;-64
2022/03/19 10:51:02;;;;;;;;;;;;;;;26.59;55.92;99128.98;617084;230;64966;-64
2022/03/19 10:53:29;;;;;;;;;;;;;;;26.60;55.83;99117.16;617108;230;62765;-65
2022/03/19 10:55:56;;;;;;;;;;;;;;;26.62;55.07;99114.98;617090;230;65682;-65
2022/03/19 10:58:24;;;;;;;;;;;;;;;26.62;54.20;99112.29;617153;230;67143;-64
2022/03/19 11:00:52;;;;;;;;;;;;;;;26.63;55.23;99113.94;617075;230;63048;-64
2022/03/19 11:03:21;;;;;;;;;;;;;;;26.65;54.36;99110.97;617156;230;67268;-64
2022/03/19 11:05:49;;;;;;;;;;;;;;;26.65;55.38;99114.47;617110;230;65041;-64
2022/03/19 11:08:18;;;;;;;;;;;;;;;26.65;55.58;99109.08;617110;230;65506;-65
2022/03/19 11:10:48;;;;;;;;;;;;;;;26.66;56.15;99102.63;609455;230;68637;-65
2022/03/19 11:13:17;;;;;;;;;;;;;;;26.67;55.04;99106.13;617063;230;68160;-64
2022/03/19 11:15:44;;;;;;;;;;;;;;;26.68;55.23;99100.50;616943;229;65185;-64
2022/03/19 11:18:12;;;;;;;;;;;;;;;26.69;55.26;99102.11;619207;229;67298;-64
2022/03/19 11:20:41;;;;;;;;;;;;;;;26.70;55.35;99101.03;619227;229;67092;-64
2022/03/19 11:23:10;;;;;;;;;;;;;;;26.70;55.29;99101.03;619253;229;65132;-65
2022/03/19 11:25:42;;;;;;;;;;;;;;;26.72;55.82;99108.87;619236;229;65882;-65
2022/03/19 11:28:11;;;;;;;;;;;;;;;26.71;55.94;99102.67;619148;229;64360;-65
2022/03/19 11:30:40;;;;;;;;;;;;;;;26.71;55.97;99099.98;619205;229;65190;-65
2022/03/19 11:33:10;;;;;;;;;;;;;;;26.72;54.42;99106.17;619230;229;67255;-65
2022/03/19 11:35:39;;;;;;;;;;;;;;;26.73;54.80;99103.20;619177;229;65526;-65
2022/03/19 11:38:11;;;;;;;;;;;;;;;26.74;56.08;99112.13;619234;229;65507;-64
2022/03/19 11:40:36;;;;;;;;;;;;;;;26.74;55.39;99107.55;619124;229;67255;-64
2022/03/19 11:43:05;;;;;;;;;;;;;;;26.76;55.14;99109.97;619215;229;67088;-64
2022/03/19 11:45:34;;;;;;;;;;;;;;;26.76;54.58;99105.41;619225;229;63137;-64
2022/03/19 11:48:02;;;;;;;;;;;;;;;26.76;54.68;99110.80;614757;229;65651;-64
2022/03/19 11:50:31;;;;;;;;;;;;;;;26.78;54.22;99105.94;619139;229;64485;-64
2022/03/19 11:53:00;;;;;;;;;;;;;;;26.78;53.86;99095.16;619196;229;65412;-64
2022/03/19 11:55:29;;;;;;;;;;;;;;;26.78;55.12;99103.25;619219;229;64436;-64
2022/03/19 11:57:58;;;;;;;;;;;;;;;26.78;54.41;99092.45;619086;229;66910;-64
2022/03/19 12:00:27;;;;;;;;;;;;;;;26.81;54.34;99093.02;606435;229;68788;-64
2022/03/19 12:03:06;;;;;;;;;;;;;;;26.81;53.69;99079.53;605916;229;67467;-64
2022/03/19 12:05:34;;;;;;;;;;;;;;;26.82;54.09;99081.14;618586;229;65021;-65
2022/03/19 12:08:17;;;;;;;;;;;;;;;26.82;53.61;99078.45;618588;229;63013;-65
2022/03/19 12:10:57;;;;;;;;;;;;;;;26.83;53.45;99080.09;618490;229;67969;-64
2022/03/19 12:13:29;;;;;;;;;;;;;;;26.84;53.04;99071.72;618698;229;67172;-64
2022/03/19 12:15:57;;;;;;;;;;;;;;;26.85;53.33;99073.36;618948;229;65350;-64
2022/03/19 12:18:35;;;;;;;;;;;;;;;26.86;53.21;99082.27;617052;230;67305;-63
2022/03/19 12:21:13;;;;;;;;;;;;;;;26.87;53.86;99078.48;603934;230;63995;-63
2022/03/19 12:23:42;;;;;;;;;;;;;;;26.87;53.16;99073.09;609503;230;63365;-63
2022/03/19 12:26:10;;;;;;;;;;;;;;;26.88;53.29;99066.64;617045;230;66825;-63
2022/03/19 12:28:38;;;;;;;;;;;;;;;26.89;54.02;99065.55;617085;230;66774;-63
2022/03/19 12:31:08;;;;;;;;;;;;;;;26.90;53.72;99067.17;616979;230;65332;-64
2022/03/19 12:33:40;;;;;;;;;;;;;;;26.92;53.51;99062.33;609558;230;66642;-64
2022/03/19 12:36:12;;;;;;;;;;;;;;;26.93;54.61;99063.98;617166;230;65419;-63
2022/03/19 12:38:40;;;;;;;;;;;;;;;26.95;52.65;99064.51;615713;230;65094;-64
2022/03/19 12:43:53;;;;;;;;;;;;;;;26.96;53.57;99056.16;617146;230;66857;-66
2022/03/19 12:46:28;;;;;;;;;;;;;;;26.97;52.48;99071.27;617081;230;63275;-64
2022/03/19 12:49:03;;;;;;;;;;;;;;;26.99;53.47;99065.63;617048;230;67180;-64
2022/03/19 12:51:34;;;;;;;;;;;;;;;27.00;52.39;99061.84;617052;230;67339;-64
2022/03/19 12:54:01;;;;;;;;;;;;;;;27.01;52.53;99064.30;617130;230;63223;-65
2022/03/19 12:56:29;;;;;;;;;;;;;;;27.03;52.28;99061.31;617114;230;64987;-65
2022/03/19 12:58:58;;;;;;;;;;;;;;;27.04;52.08;99054.86;617072;230;64952;-64
2022/03/19 13:01:27;;;;;;;;;;;;;;;27.06;52.41;99059.98;617078;230;63066;-66
2022/03/19 13:03:57;;;;;;;;;;;;;;;27.06;52.09;99049.99;616899;230;64591;-65
2022/03/19 13:06:35;;;;;;;;;;;;;;;27.07;53.38;99048.13;616760;230;65033;-64
2022/03/19 13:09:01;;;;;;;;;;;;;;;27.09;52.46;99041.41;616932;230;65295;-65
2022/03/19 13:11:30;;;;;;;;;;;;;;;27.10;51.95;99040.31;616402;230;68137;-66
2022/03/19 13:13:59;;;;;;;;;;;;;;;27.11;51.46;99047.33;616077;230;67205;-65